sensor_id;sensor_type;location;lat;lon;timestamp;P1;durP1;ratioP1;P2;durP2;ratioP2
18336;SDS011;9294;51.106;7.028;2023-07-20T00:00:31;1.92;;;1.83;;
18336;SDS011;9294;51.106;7.028;2023-07-20T00:03:09;2.05;;;2.00;;
18336;SDS011;9294;51.106;7.028;2023-07-20T00:05:41;2.00;;;1.90;;
18336;SDS011;9294;51.106;7.028;2023-07-20T00:08:08;2.00;;;1.90;;
18336;SDS011;9294;51.106;7.028;2023-07-20T00:10:35;1.77;;;1.73;;
18336;SDS011;9294;51.106;7.028;2023-07-20T00:13:02;1.98;;;1.98;;
18336;SDS011;9294;51.106;7.028;2023-07-20T00:15:29;2.10;;;2.00;;
18336;SDS011;9294;51.106;7.028;2023-07-20T00:17:58;1.73;;;1.73;;
18336;SDS011;9294;51.106;7.028;2023-07-20T00:20:25;2.10;;;2.00;;
18336;SDS011;9294;51.106;7.028;2023-07-20T00:22:52;2.10;;;2.00;;
18336;SDS011;9294;51.106;7.028;2023-07-20T00:25:20;1.92;;;1.92;;
18336;SDS011;9294;51.106;7.028;2023-07-20T00:27:47;2.22;;;2.13;;
18336;SDS011;9294;51.106;7.028;2023-07-20T00:30:14;2.10;;;2.00;;
18336;SDS011;9294;51.106;7.028;2023-07-20T00:32:41;1.70;;;1.70;;
18336;SDS011;9294;51.106;7.028;2023-07-20T00:35:10;2.20;;;2.10;;
18336;SDS011;9294;51.106;7.028;2023-07-20T00:37:38;2.08;;;1.98;;
18336;SDS011;9294;51.106;7.028;2023-07-20T00:40:05;1.90;;;1.83;;
18336;SDS011;9294;51.106;7.028;2023-07-20T00:42:33;1.92;;;1.90;;
18336;SDS011;9294;51.106;7.028;2023-07-20T00:45:00;1.77;;;1.70;;
18336;SDS011;9294;51.106;7.028;2023-07-20T00:47:27;1.77;;;1.77;;
18336;SDS011;9294;51.106;7.028;2023-07-20T00:49:54;1.98;;;1.88;;
18336;SDS011;9294;51.106;7.028;2023-07-20T00:52:23;2.20;;;2.10;;
18336;SDS011;9294;51.106;7.028;2023-07-20T00:54:50;1.60;;;1.60;;
18336;SDS011;9294;51.106;7.028;2023-07-20T00:57:21;1.60;;;1.60;;
18336;SDS011;9294;51.106;7.028;2023-07-20T00:59:48;1.90;;;1.80;;
18336;SDS011;9294;51.106;7.028;2023-07-20T01:02:15;1.70;;;1.70;;
18336;SDS011;9294;51.106;7.028;2023-07-20T01:04:42;2.00;;;2.00;;
18336;SDS011;9294;51.106;7.028;2023-07-20T01:07:10;1.67;;;1.60;;
18336;SDS011;9294;51.106;7.028;2023-07-20T01:09:42;1.80;;;1.80;;
18336;SDS011;9294;51.106;7.028;2023-07-20T01:12:12;1.67;;;1.67;;
18336;SDS011;9294;51.106;7.028;2023-07-20T01:14:40;1.85;;;1.85;;
18336;SDS011;9294;51.106;7.028;2023-07-20T01:17:08;1.90;;;1.80;;
18336;SDS011;9294;51.106;7.028;2023-07-20T01:19:35;1.73;;;1.70;;
18336;SDS011;9294;51.106;7.028;2023-07-20T01:22:03;2.10;;;2.00;;
18336;SDS011;9294;51.106;7.028;2023-07-20T01:24:58;2.17;;;2.08;;
18336;SDS011;9294;51.106;7.028;2023-07-20T01:30:18;2.00;;;1.90;;
18336;SDS011;9294;51.106;7.028;2023-07-20T01:32:49;2.17;;;2.08;;
18336;SDS011;9294;51.106;7.028;2023-07-20T01:35:20;1.90;;;1.80;;
18336;SDS011;9294;51.106;7.028;2023-07-20T01:37:49;2.20;;;2.10;;
18336;SDS011;9294;51.106;7.028;2023-07-20T01:40:17;2.03;;;1.92;;
18336;SDS011;9294;51.106;7.028;2023-07-20T01:42:45;1.80;;;1.80;;
18336;SDS011;9294;51.106;7.028;2023-07-20T01:45:12;1.65;;;1.65;;
18336;SDS011;9294;51.106;7.028;2023-07-20T01:47:39;1.80;;;1.70;;
18336;SDS011;9294;51.106;7.028;2023-07-20T01:50:08;1.55;;;1.55;;
18336;SDS011;9294;51.106;7.028;2023-07-20T01:52:35;1.90;;;1.80;;
18336;SDS011;9294;51.106;7.028;2023-07-20T01:55:02;1.92;;;1.92;;
18336;SDS011;9294;51.106;7.028;2023-07-20T01:57:29;1.65;;;1.55;;
18336;SDS011;9294;51.106;7.028;2023-07-20T01:59:56;1.83;;;1.73;;
18336;SDS011;9294;51.106;7.028;2023-07-20T02:02:25;2.03;;;1.92;;
18336;SDS011;9294;51.106;7.028;2023-07-20T02:04:53;2.40;;;2.30;;
18336;SDS011;9294;51.106;7.028;2023-07-20T02:07:21;2.60;;;2.50;;
18336;SDS011;9294;51.106;7.028;2023-07-20T02:09:48;1.67;;;1.67;;
18336;SDS011;9294;51.106;7.028;2023-07-20T02:12:15;1.88;;;1.77;;
18336;SDS011;9294;51.106;7.028;2023-07-20T02:14:42;2.00;;;1.90;;
18336;SDS011;9294;51.106;7.028;2023-07-20T02:17:09;1.77;;;1.77;;
18336;SDS011;9294;51.106;7.028;2023-07-20T02:19:37;1.83;;;1.73;;
18336;SDS011;9294;51.106;7.028;2023-07-20T02:22:04;2.10;;;2.10;;
18336;SDS011;9294;51.106;7.028;2023-07-20T02:24:33;1.58;;;1.58;;
18336;SDS011;9294;51.106;7.028;2023-07-20T02:27:00;1.85;;;1.83;;
18336;SDS011;9294;51.106;7.028;2023-07-20T02:29:27;1.60;;;1.60;;
18336;SDS011;9294;51.106;7.028;2023-07-20T02:31:54;2.10;;;2.00;;
18336;SDS011;9294;51.106;7.028;2023-07-20T02:34:21;1.90;;;1.83;;
18336;SDS011;9294;51.106;7.028;2023-07-20T02:36:49;1.60;;;1.60;;
18336;SDS011;9294;51.106;7.028;2023-07-20T02:39:16;2.10;;;1.83;;
18336;SDS011;9294;51.106;7.028;2023-07-20T02:41:44;1.88;;;1.88;;
18336;SDS011;9294;51.106;7.028;2023-07-20T02:44:11;2.00;;;1.90;;
18336;SDS011;9294;51.106;7.028;2023-07-20T02:46:38;1.67;;;1.67;;
18336;SDS011;9294;51.106;7.028;2023-07-20T02:49:05;2.00;;;1.90;;
18336;SDS011;9294;51.106;7.028;2023-07-20T02:51:33;1.95;;;1.85;;
18336;SDS011;9294;51.106;7.028;2023-07-20T02:54:00;1.88;;;1.77;;
18336;SDS011;9294;51.106;7.028;2023-07-20T02:56:28;2.20;;;2.10;;
18336;SDS011;9294;51.106;7.028;2023-07-20T02:58:56;2.03;;;1.92;;
18336;SDS011;9294;51.106;7.028;2023-07-20T03:01:23;1.50;;;1.50;;
18336;SDS011;9294;51.106;7.028;2023-07-20T03:03:54;2.13;;;2.03;;
18336;SDS011;9294;51.106;7.028;2023-07-20T03:06:21;2.13;;;1.98;;
18336;SDS011;9294;51.106;7.028;2023-07-20T03:08:48;1.73;;;1.63;;
18336;SDS011;9294;51.106;7.028;2023-07-20T03:11:18;2.00;;;1.90;;
18336;SDS011;9294;51.106;7.028;2023-07-20T03:13:46;2.03;;;1.92;;
18336;SDS011;9294;51.106;7.028;2023-07-20T03:16:18;1.55;;;1.55;;
18336;SDS011;9294;51.106;7.028;2023-07-20T03:18:45;1.70;;;1.70;;
18336;SDS011;9294;51.106;7.028;2023-07-20T03:21:13;2.30;;;2.20;;
18336;SDS011;9294;51.106;7.028;2023-07-20T03:23:40;2.08;;;1.98;;
18336;SDS011;9294;51.106;7.028;2023-07-20T03:26:07;1.80;;;1.80;;
18336;SDS011;9294;51.106;7.028;2023-07-20T03:28:35;2.30;;;2.20;;
18336;SDS011;9294;51.106;7.028;2023-07-20T03:31:02;1.90;;;1.80;;
18336;SDS011;9294;51.106;7.028;2023-07-20T03:33:31;1.83;;;1.73;;
18336;SDS011;9294;51.106;7.028;2023-07-20T03:35:58;1.88;;;1.77;;
18336;SDS011;9294;51.106;7.028;2023-07-20T03:38:26;1.63;;;1.63;;
18336;SDS011;9294;51.106;7.028;2023-07-20T03:40:54;1.75;;;1.75;;
18336;SDS011;9294;51.106;7.028;2023-07-20T03:43:21;2.00;;;1.90;;
18336;SDS011;9294;51.106;7.028;2023-07-20T03:45:48;1.58;;;1.48;;
18336;SDS011;9294;51.106;7.028;2023-07-20T03:48:16;1.80;;;1.80;;
18336;SDS011;9294;51.106;7.028;2023-07-20T03:50:45;1.65;;;1.65;;
18336;SDS011;9294;51.106;7.028;2023-07-20T03:53:12;2.15;;;1.92;;
18336;SDS011;9294;51.106;7.028;2023-07-20T03:55:40;2.45;;;2.25;;
18336;SDS011;9294;51.106;7.028;2023-07-20T03:58:07;1.90;;;1.83;;
18336;SDS011;9294;51.106;7.028;2023-07-20T04:00:34;1.67;;;1.67;;
18336;SDS011;9294;51.106;7.028;2023-07-20T04:03:01;1.80;;;1.80;;
18336;SDS011;9294;51.106;7.028;2023-07-20T04:05:28;2.17;;;2.08;;
18336;SDS011;9294;51.106;7.028;2023-07-20T04:07:57;1.88;;;1.80;;
18336;SDS011;9294;51.106;7.028;2023-07-20T04:10:24;1.70;;;1.70;;
18336;SDS011;9294;51.106;7.028;2023-07-20T04:12:51;1.88;;;1.83;;
18336;SDS011;9294;51.106;7.028;2023-07-20T04:15:18;1.73;;;1.73;;
18336;SDS011;9294;51.106;7.028;2023-07-20T04:17:45;2.00;;;1.90;;
18336;SDS011;9294;51.106;7.028;2023-07-20T04:20:12;1.58;;;1.58;;
18336;SDS011;9294;51.106;7.028;2023-07-20T04:22:39;2.03;;;2.03;;
18336;SDS011;9294;51.106;7.028;2023-07-20T04:25:08;1.52;;;1.52;;
18336;SDS011;9294;51.106;7.028;2023-07-20T04:27:35;1.73;;;1.73;;
18336;SDS011;9294;51.106;7.028;2023-07-20T04:30:03;2.00;;;1.90;;
18336;SDS011;9294;51.106;7.028;2023-07-20T04:32:30;1.88;;;1.88;;
18336;SDS011;9294;51.106;7.028;2023-07-20T04:34:58;1.77;;;1.77;;
18336;SDS011;9294;51.106;7.028;2023-07-20T04:37:25;1.83;;;1.70;;
18336;SDS011;9294;51.106;7.028;2023-07-20T04:39:52;1.63;;;1.63;;
18336;SDS011;9294;51.106;7.028;2023-07-20T04:42:21;2.00;;;2.00;;
18336;SDS011;9294;51.106;7.028;2023-07-20T04:44:48;2.00;;;1.90;;
18336;SDS011;9294;51.106;7.028;2023-07-20T04:47:15;1.92;;;1.83;;
18336;SDS011;9294;51.106;7.028;2023-07-20T04:49:42;1.70;;;1.70;;
18336;SDS011;9294;51.106;7.028;2023-07-20T04:52:09;1.80;;;1.70;;
18336;SDS011;9294;51.106;7.028;2023-07-20T04:54:36;1.90;;;1.90;;
18336;SDS011;9294;51.106;7.028;2023-07-20T04:57:05;1.38;;;1.38;;
18336;SDS011;9294;51.106;7.028;2023-07-20T04:59:37;2.17;;;1.98;;
18336;SDS011;9294;51.106;7.028;2023-07-20T05:02:04;2.03;;;1.92;;
18336;SDS011;9294;51.106;7.028;2023-07-20T05:04:31;1.73;;;1.73;;
18336;SDS011;9294;51.106;7.028;2023-07-20T05:06:58;1.75;;;1.75;;
18336;SDS011;9294;51.106;7.028;2023-07-20T05:09:25;2.22;;;1.75;;
18336;SDS011;9294;51.106;7.028;2023-07-20T05:11:52;1.75;;;1.73;;
18336;SDS011;9294;51.106;7.028;2023-07-20T05:14:19;2.17;;;2.08;;
18336;SDS011;9294;51.106;7.028;2023-07-20T05:16:47;1.90;;;1.90;;
18336;SDS011;9294;51.106;7.028;2023-07-20T05:19:14;1.90;;;1.80;;
18336;SDS011;9294;51.106;7.028;2023-07-20T05:21:41;3.60;;;1.92;;
18336;SDS011;9294;51.106;7.028;2023-07-20T05:24:08;3.38;;;2.60;;
18336;SDS011;9294;51.106;7.028;2023-07-20T05:26:35;2.33;;;2.10;;
18336;SDS011;9294;51.106;7.028;2023-07-20T05:29:03;2.30;;;2.13;;
18336;SDS011;9294;51.106;7.028;2023-07-20T05:31:30;2.55;;;2.35;;
18336;SDS011;9294;51.106;7.028;2023-07-20T05:33:58;3.42;;;2.33;;
18336;SDS011;9294;51.106;7.028;2023-07-20T05:36:25;4.97;;;2.20;;
18336;SDS011;9294;51.106;7.028;2023-07-20T05:38:52;2.78;;;2.58;;
18336;SDS011;9294;51.106;7.028;2023-07-20T05:41:19;3.65;;;2.40;;
18336;SDS011;9294;51.106;7.028;2023-07-20T05:43:47;2.38;;;2.10;;
18336;SDS011;9294;51.106;7.028;2023-07-20T05:46:14;2.38;;;2.25;;
18336;SDS011;9294;51.106;7.028;2023-07-20T05:48:41;2.55;;;2.03;;
18336;SDS011;9294;51.106;7.028;2023-07-20T05:51:10;2.75;;;2.65;;
18336;SDS011;9294;51.106;7.028;2023-07-20T05:53:37;2.08;;;1.98;;
18336;SDS011;9294;51.106;7.028;2023-07-20T05:56:04;3.85;;;2.90;;
18336;SDS011;9294;51.106;7.028;2023-07-20T05:58:35;2.58;;;2.45;;
18336;SDS011;9294;51.106;7.028;2023-07-20T06:01:03;3.03;;;2.83;;
18336;SDS011;9294;51.106;7.028;2023-07-20T06:03:31;3.05;;;2.70;;
18336;SDS011;9294;51.106;7.028;2023-07-20T06:05:59;2.83;;;2.55;;
18336;SDS011;9294;51.106;7.028;2023-07-20T06:08:28;5.68;;;2.92;;
18336;SDS011;9294;51.106;7.028;2023-07-20T06:10:55;3.03;;;2.65;;
18336;SDS011;9294;51.106;7.028;2023-07-20T06:13:22;3.42;;;3.05;;
18336;SDS011;9294;51.106;7.028;2023-07-20T06:15:50;2.75;;;2.55;;
18336;SDS011;9294;51.106;7.028;2023-07-20T06:18:17;3.95;;;3.00;;
18336;SDS011;9294;51.106;7.028;2023-07-20T06:20:48;4.85;;;3.38;;
18336;SDS011;9294;51.106;7.028;2023-07-20T06:23:15;3.28;;;3.03;;
18336;SDS011;9294;51.106;7.028;2023-07-20T06:25:43;3.83;;;2.78;;
18336;SDS011;9294;51.106;7.028;2023-07-20T06:28:10;3.10;;;2.90;;
18336;SDS011;9294;51.106;7.028;2023-07-20T06:30:37;3.50;;;3.20;;
18336;SDS011;9294;51.106;7.028;2023-07-20T06:33:05;5.20;;;3.50;;
18336;SDS011;9294;51.106;7.028;2023-07-20T06:35:32;5.13;;;3.10;;
18336;SDS011;9294;51.106;7.028;2023-07-20T06:37:59;4.45;;;3.40;;
18336;SDS011;9294;51.106;7.028;2023-07-20T06:40:29;7.72;;;3.47;;
18336;SDS011;9294;51.106;7.028;2023-07-20T06:42:57;5.28;;;3.60;;
18336;SDS011;9294;51.106;7.028;2023-07-20T06:45:24;5.20;;;3.67;;
18336;SDS011;9294;51.106;7.028;2023-07-20T06:47:51;5.32;;;3.95;;
18336;SDS011;9294;51.106;7.028;2023-07-20T06:50:18;4.93;;;3.45;;
18336;SDS011;9294;51.106;7.028;2023-07-20T06:52:45;5.57;;;3.67;;
18336;SDS011;9294;51.106;7.028;2023-07-20T06:55:13;5.40;;;3.28;;
18336;SDS011;9294;51.106;7.028;2023-07-20T06:57:40;8.63;;;4.22;;
18336;SDS011;9294;51.106;7.028;2023-07-20T07:00:09;4.47;;;4.07;;
18336;SDS011;9294;51.106;7.028;2023-07-20T07:02:37;6.78;;;4.03;;
18336;SDS011;9294;51.106;7.028;2023-07-20T07:05:04;7.97;;;3.92;;
18336;SDS011;9294;51.106;7.028;2023-07-20T07:07:31;6.70;;;3.92;;
18336;SDS011;9294;51.106;7.028;2023-07-20T07:09:59;8.43;;;4.03;;
18336;SDS011;9294;51.106;7.028;2023-07-20T07:12:28;11.68;;;4.28;;
18336;SDS011;9294;51.106;7.028;2023-07-20T07:14:55;10.07;;;4.20;;
18336;SDS011;9294;51.106;7.028;2023-07-20T07:17:24;7.40;;;4.18;;
18336;SDS011;9294;51.106;7.028;2023-07-20T07:19:51;7.25;;;3.90;;
18336;SDS011;9294;51.106;7.028;2023-07-20T07:22:19;8.52;;;4.32;;
18336;SDS011;9294;51.106;7.028;2023-07-20T07:24:47;8.43;;;4.00;;
18336;SDS011;9294;51.106;7.028;2023-07-20T07:27:14;9.00;;;4.63;;
18336;SDS011;9294;51.106;7.028;2023-07-20T07:29:42;6.10;;;4.00;;
18336;SDS011;9294;51.106;7.028;2023-07-20T07:32:09;10.88;;;4.68;;
18336;SDS011;9294;51.106;7.028;2023-07-20T07:34:38;8.75;;;4.45;;
18336;SDS011;9294;51.106;7.028;2023-07-20T07:37:05;10.93;;;4.78;;
18336;SDS011;9294;51.106;7.028;2023-07-20T07:39:32;6.57;;;4.32;;
18336;SDS011;9294;51.106;7.028;2023-07-20T07:41:59;8.70;;;4.55;;
18336;SDS011;9294;51.106;7.028;2023-07-20T07:44:26;11.30;;;5.03;;
18336;SDS011;9294;51.106;7.028;2023-07-20T07:46:53;6.75;;;4.05;;
18336;SDS011;9294;51.106;7.028;2023-07-20T07:49:20;6.13;;;4.35;;
18336;SDS011;9294;51.106;7.028;2023-07-20T07:51:49;7.55;;;4.30;;
18336;SDS011;9294;51.106;7.028;2023-07-20T07:54:16;5.72;;;3.85;;
18336;SDS011;9294;51.106;7.028;2023-07-20T07:56:43;5.13;;;3.90;;
18336;SDS011;9294;51.106;7.028;2023-07-20T07:59:10;8.50;;;4.38;;
18336;SDS011;9294;51.106;7.028;2023-07-20T08:01:37;4.22;;;3.80;;
18336;SDS011;9294;51.106;7.028;2023-07-20T08:04:04;5.30;;;3.65;;
18336;SDS011;9294;51.106;7.028;2023-07-20T08:06:31;6.40;;;4.13;;
18336;SDS011;9294;51.106;7.028;2023-07-20T08:09:00;7.25;;;4.85;;
18336;SDS011;9294;51.106;7.028;2023-07-20T08:11:28;5.35;;;4.30;;
18336;SDS011;9294;51.106;7.028;2023-07-20T08:13:58;5.15;;;3.85;;
18336;SDS011;9294;51.106;7.028;2023-07-20T08:16:25;6.55;;;4.20;;
18336;SDS011;9294;51.106;7.028;2023-07-20T08:18:53;5.93;;;4.25;;
18336;SDS011;9294;51.106;7.028;2023-07-20T08:21:20;4.40;;;3.92;;
18336;SDS011;9294;51.106;7.028;2023-07-20T08:23:47;5.43;;;3.83;;
18336;SDS011;9294;51.106;7.028;2023-07-20T08:26:15;6.78;;;3.90;;
18336;SDS011;9294;51.106;7.028;2023-07-20T08:28:43;5.00;;;4.00;;
18336;SDS011;9294;51.106;7.028;2023-07-20T08:31:13;8.20;;;3.55;;
18336;SDS011;9294;51.106;7.028;2023-07-20T08:33:40;7.13;;;3.97;;
18336;SDS011;9294;51.106;7.028;2023-07-20T08:36:07;7.05;;;3.58;;
18336;SDS011;9294;51.106;7.028;2023-07-20T08:38:34;5.47;;;3.30;;
18336;SDS011;9294;51.106;7.028;2023-07-20T08:41:01;6.75;;;4.05;;
18336;SDS011;9294;51.106;7.028;2023-07-20T08:43:29;12.02;;;3.25;;
18336;SDS011;9294;51.106;7.028;2023-07-20T08:45:57;4.80;;;3.50;;
18336;SDS011;9294;51.106;7.028;2023-07-20T08:48:24;6.80;;;3.63;;
18336;SDS011;9294;51.106;7.028;2023-07-20T08:50:51;4.05;;;3.47;;
18336;SDS011;9294;51.106;7.028;2023-07-20T08:53:19;4.38;;;3.22;;
18336;SDS011;9294;51.106;7.028;2023-07-20T08:55:48;6.82;;;3.50;;
18336;SDS011;9294;51.106;7.028;2023-07-20T08:58:16;5.63;;;3.75;;
18336;SDS011;9294;51.106;7.028;2023-07-20T09:00:45;4.18;;;3.70;;
18336;SDS011;9294;51.106;7.028;2023-07-20T09:03:16;3.42;;;3.10;;
18336;SDS011;9294;51.106;7.028;2023-07-20T09:05:44;4.47;;;3.50;;
18336;SDS011;9294;51.106;7.028;2023-07-20T09:08:11;4.07;;;3.17;;
18336;SDS011;9294;51.106;7.028;2023-07-20T09:10:38;5.15;;;3.33;;
18336;SDS011;9294;51.106;7.028;2023-07-20T09:13:05;3.72;;;3.38;;
18336;SDS011;9294;51.106;7.028;2023-07-20T09:15:32;4.25;;;3.85;;
18336;SDS011;9294;51.106;7.028;2023-07-20T09:18:02;4.13;;;3.08;;
18336;SDS011;9294;51.106;7.028;2023-07-20T09:20:31;4.88;;;3.17;;
18336;SDS011;9294;51.106;7.028;2023-07-20T09:22:58;4.28;;;2.88;;
18336;SDS011;9294;51.106;7.028;2023-07-20T09:25:25;3.85;;;2.72;;
18336;SDS011;9294;51.106;7.028;2023-07-20T09:27:54;5.28;;;3.17;;
18336;SDS011;9294;51.106;7.028;2023-07-20T09:30:21;3.72;;;3.00;;
18336;SDS011;9294;51.106;7.028;2023-07-20T09:32:51;3.95;;;3.20;;
18336;SDS011;9294;51.106;7.028;2023-07-20T09:35:20;4.20;;;2.88;;
18336;SDS011;9294;51.106;7.028;2023-07-20T09:37:49;3.25;;;3.00;;
18336;SDS011;9294;51.106;7.028;2023-07-20T09:40:17;3.03;;;2.78;;
18336;SDS011;9294;51.106;7.028;2023-07-20T09:42:45;4.35;;;3.38;;
18336;SDS011;9294;51.106;7.028;2023-07-20T09:45:12;4.38;;;3.17;;
18336;SDS011;9294;51.106;7.028;2023-07-20T09:47:39;4.38;;;3.20;;
18336;SDS011;9294;51.106;7.028;2023-07-20T09:50:07;5.10;;;2.75;;
18336;SDS011;9294;51.106;7.028;2023-07-20T09:52:38;2.75;;;2.55;;
18336;SDS011;9294;51.106;7.028;2023-07-20T09:55:06;9.38;;;2.80;;
18336;SDS011;9294;51.106;7.028;2023-07-20T09:57:33;3.08;;;2.90;;
18336;SDS011;9294;51.106;7.028;2023-07-20T10:00:04;2.60;;;2.50;;
18336;SDS011;9294;51.106;7.028;2023-07-20T10:02:39;3.63;;;2.60;;
18336;SDS011;9294;51.106;7.028;2023-07-20T10:05:07;3.67;;;2.72;;
18336;SDS011;9294;51.106;7.028;2023-07-20T10:07:35;4.13;;;2.63;;
18336;SDS011;9294;51.106;7.028;2023-07-20T10:10:05;3.22;;;2.95;;
18336;SDS011;9294;51.106;7.028;2023-07-20T10:12:33;3.63;;;2.92;;
18336;SDS011;9294;51.106;7.028;2023-07-20T10:15:11;3.15;;;2.70;;
18336;SDS011;9294;51.106;7.028;2023-07-20T10:17:43;3.00;;;2.67;;
18336;SDS011;9294;51.106;7.028;2023-07-20T10:20:14;4.05;;;2.40;;
18336;SDS011;9294;51.106;7.028;2023-07-20T10:22:44;5.47;;;4.07;;
18336;SDS011;9294;51.106;7.028;2023-07-20T10:25:13;9.65;;;4.20;;
18336;SDS011;9294;51.106;7.028;2023-07-20T10:27:40;9.70;;;5.55;;
18336;SDS011;9294;51.106;7.028;2023-07-20T10:30:07;10.15;;;5.28;;
18336;SDS011;9294;51.106;7.028;2023-07-20T10:32:35;8.80;;;5.35;;
18336;SDS011;9294;51.106;7.028;2023-07-20T10:35:06;6.35;;;4.60;;
18336;SDS011;9294;51.106;7.028;2023-07-20T10:37:48;10.88;;;4.95;;
18336;SDS011;9294;51.106;7.028;2023-07-20T10:40:27;5.13;;;4.50;;
18336;SDS011;9294;51.106;7.028;2023-07-20T10:42:56;11.25;;;4.70;;
18336;SDS011;9294;51.106;7.028;2023-07-20T10:45:32;6.00;;;5.00;;
18336;SDS011;9294;51.106;7.028;2023-07-20T10:48:02;7.47;;;4.35;;
18336;SDS011;9294;51.106;7.028;2023-07-20T10:50:29;7.82;;;4.80;;
18336;SDS011;9294;51.106;7.028;2023-07-20T10:53:12;5.97;;;4.85;;
18336;SDS011;9294;51.106;7.028;2023-07-20T10:55:41;6.32;;;4.72;;
18336;SDS011;9294;51.106;7.028;2023-07-20T10:58:11;9.18;;;4.55;;
18336;SDS011;9294;51.106;7.028;2023-07-20T11:00:54;3.97;;;3.63;;
18336;SDS011;9294;51.106;7.028;2023-07-20T11:03:31;5.72;;;3.72;;
18336;SDS011;9294;51.106;7.028;2023-07-20T11:05:59;4.45;;;3.75;;
18336;SDS011;9294;51.106;7.028;2023-07-20T11:08:40;5.05;;;3.80;;
18336;SDS011;9294;51.106;7.028;2023-07-20T11:11:23;3.85;;;3.28;;
18336;SDS011;9294;51.106;7.028;2023-07-20T11:13:56;6.32;;;3.50;;
18336;SDS011;9294;51.106;7.028;2023-07-20T11:16:34;8.00;;;3.72;;
18336;SDS011;9294;51.106;7.028;2023-07-20T11:19:01;6.32;;;3.67;;
18336;SDS011;9294;51.106;7.028;2023-07-20T11:21:29;6.05;;;3.70;;
18336;SDS011;9294;51.106;7.028;2023-07-20T11:23:56;7.13;;;3.65;;
18336;SDS011;9294;51.106;7.028;2023-07-20T11:26:24;6.55;;;3.55;;
18336;SDS011;9294;51.106;7.028;2023-07-20T11:28:51;4.90;;;3.42;;
18336;SDS011;9294;51.106;7.028;2023-07-20T11:31:18;3.47;;;3.17;;
18336;SDS011;9294;51.106;7.028;2023-07-20T11:33:45;5.13;;;3.08;;
18336;SDS011;9294;51.106;7.028;2023-07-20T11:36:12;3.22;;;2.95;;
18336;SDS011;9294;51.106;7.028;2023-07-20T11:38:41;6.50;;;3.22;;
18336;SDS011;9294;51.106;7.028;2023-07-20T11:41:09;4.80;;;3.30;;
18336;SDS011;9294;51.106;7.028;2023-07-20T11:43:37;3.35;;;3.15;;
18336;SDS011;9294;51.106;7.028;2023-07-20T11:46:04;3.33;;;3.03;;
18336;SDS011;9294;51.106;7.028;2023-07-20T11:48:32;3.58;;;3.28;;
18336;SDS011;9294;51.106;7.028;2023-07-20T11:50:59;3.60;;;3.08;;
18336;SDS011;9294;51.106;7.028;2023-07-20T11:53:26;3.67;;;3.10;;
18336;SDS011;9294;51.106;7.028;2023-07-20T11:55:53;2.90;;;2.70;;
18336;SDS011;9294;51.106;7.028;2023-07-20T11:58:20;3.58;;;3.20;;
18336;SDS011;9294;51.106;7.028;2023-07-20T12:00:49;4.05;;;3.40;;
18336;SDS011;9294;51.106;7.028;2023-07-20T12:03:16;3.55;;;3.25;;
18336;SDS011;9294;51.106;7.028;2023-07-20T12:05:43;2.97;;;2.78;;
18336;SDS011;9294;51.106;7.028;2023-07-20T12:08:10;3.13;;;2.67;;
18336;SDS011;9294;51.106;7.028;2023-07-20T12:10:38;3.15;;;2.95;;
18336;SDS011;9294;51.106;7.028;2023-07-20T12:13:09;2.70;;;2.60;;
18336;SDS011;9294;51.106;7.028;2023-07-20T12:15:37;3.75;;;3.40;;
18336;SDS011;9294;51.106;7.028;2023-07-20T12:18:05;2.83;;;2.72;;
18336;SDS011;9294;51.106;7.028;2023-07-20T12:20:33;3.60;;;2.60;;
18336;SDS011;9294;51.106;7.028;2023-07-20T12:23:01;3.55;;;2.90;;
18336;SDS011;9294;51.106;7.028;2023-07-20T12:25:33;3.63;;;2.70;;
18336;SDS011;9294;51.106;7.028;2023-07-20T12:28:00;6.70;;;2.80;;
18336;SDS011;9294;51.106;7.028;2023-07-20T12:30:28;3.15;;;2.95;;
18336;SDS011;9294;51.106;7.028;2023-07-20T12:32:55;3.17;;;2.83;;
18336;SDS011;9294;51.106;7.028;2023-07-20T12:35:24;3.90;;;2.55;;
18336;SDS011;9294;51.106;7.028;2023-07-20T12:37:51;4.78;;;2.70;;
18336;SDS011;9294;51.106;7.028;2023-07-20T12:40:18;3.25;;;2.95;;
18336;SDS011;9294;51.106;7.028;2023-07-20T12:42:46;3.10;;;2.50;;
18336;SDS011;9294;51.106;7.028;2023-07-20T12:45:13;2.97;;;2.53;;
18336;SDS011;9294;51.106;7.028;2023-07-20T12:47:40;11.43;;;3.50;;
18336;SDS011;9294;51.106;7.028;2023-07-20T12:50:08;4.57;;;2.75;;
18336;SDS011;9294;51.106;7.028;2023-07-20T12:52:37;3.45;;;2.97;;
18336;SDS011;9294;51.106;7.028;2023-07-20T12:55:04;3.53;;;2.50;;
18336;SDS011;9294;51.106;7.028;2023-07-20T12:57:32;4.10;;;2.97;;
18336;SDS011;9294;51.106;7.028;2023-07-20T12:59:59;2.63;;;2.42;;
18336;SDS011;9294;51.106;7.028;2023-07-20T13:02:28;6.20;;;2.60;;
18336;SDS011;9294;51.106;7.028;2023-07-20T13:04:55;3.40;;;2.78;;
18336;SDS011;9294;51.106;7.028;2023-07-20T13:07:28;3.80;;;2.63;;
18336;SDS011;9294;51.106;7.028;2023-07-20T13:09:57;3.50;;;2.65;;
18336;SDS011;9294;51.106;7.028;2023-07-20T13:12:25;2.90;;;2.60;;
18336;SDS011;9294;51.106;7.028;2023-07-20T13:14:52;5.28;;;2.85;;
18336;SDS011;9294;51.106;7.028;2023-07-20T13:17:19;2.85;;;2.63;;
18336;SDS011;9294;51.106;7.028;2023-07-20T13:19:46;2.53;;;2.33;;
18336;SDS011;9294;51.106;7.028;2023-07-20T13:22:13;4.38;;;2.30;;
18336;SDS011;9294;51.106;7.028;2023-07-20T13:24:40;2.47;;;2.38;;
18336;SDS011;9294;51.106;7.028;2023-07-20T13:27:09;3.67;;;2.22;;
18336;SDS011;9294;51.106;7.028;2023-07-20T13:29:36;2.70;;;2.60;;
18336;SDS011;9294;51.106;7.028;2023-07-20T13:32:03;2.10;;;2.00;;
18336;SDS011;9294;51.106;7.028;2023-07-20T13:34:31;2.42;;;2.33;;
18336;SDS011;9294;51.106;7.028;2023-07-20T13:36:58;2.75;;;2.55;;
18336;SDS011;9294;51.106;7.028;2023-07-20T13:39:25;2.38;;;2.20;;
18336;SDS011;9294;51.106;7.028;2023-07-20T13:41:52;2.63;;;2.35;;
18336;SDS011;9294;51.106;7.028;2023-07-20T13:44:21;2.42;;;2.33;;
18336;SDS011;9294;51.106;7.028;2023-07-20T13:46:48;4.15;;;2.10;;
18336;SDS011;9294;51.106;7.028;2023-07-20T13:49:15;2.53;;;2.40;;
18336;SDS011;9294;51.106;7.028;2023-07-20T13:51:42;2.40;;;2.20;;
18336;SDS011;9294;51.106;7.028;2023-07-20T13:54:09;1.75;;;1.65;;
18336;SDS011;9294;51.106;7.028;2023-07-20T13:56:36;2.35;;;1.98;;
18336;SDS011;9294;51.106;7.028;2023-07-20T13:59:03;2.35;;;1.80;;
18336;SDS011;9294;51.106;7.028;2023-07-20T14:01:32;2.83;;;1.90;;
18336;SDS011;9294;51.106;7.028;2023-07-20T14:04:00;1.67;;;1.67;;
18336;SDS011;9294;51.106;7.028;2023-07-20T14:06:29;1.80;;;1.70;;
18336;SDS011;9294;51.106;7.028;2023-07-20T14:08:56;2.03;;;1.92;;
18336;SDS011;9294;51.106;7.028;2023-07-20T14:11:24;1.90;;;1.80;;
18336;SDS011;9294;51.106;7.028;2023-07-20T14:13:51;1.88;;;1.85;;
18336;SDS011;9294;51.106;7.028;2023-07-20T14:16:19;3.13;;;2.25;;
18336;SDS011;9294;51.106;7.028;2023-07-20T14:18:47;2.17;;;2.00;;
18336;SDS011;9294;51.106;7.028;2023-07-20T14:21:14;2.20;;;2.10;;
18336;SDS011;9294;51.106;7.028;2023-07-20T14:23:41;5.10;;;2.20;;
18336;SDS011;9294;51.106;7.028;2023-07-20T14:26:08;4.80;;;2.42;;
18336;SDS011;9294;51.106;7.028;2023-07-20T14:28:35;2.03;;;1.92;;
18336;SDS011;9294;51.106;7.028;2023-07-20T14:31:03;1.92;;;1.92;;
18336;SDS011;9294;51.106;7.028;2023-07-20T14:33:30;3.03;;;1.80;;
18336;SDS011;9294;51.106;7.028;2023-07-20T14:35:58;6.45;;;1.83;;
18336;SDS011;9294;51.106;7.028;2023-07-20T14:38:26;3.10;;;2.42;;
18336;SDS011;9294;51.106;7.028;2023-07-20T14:40:53;1.83;;;1.70;;
18336;SDS011;9294;51.106;7.028;2023-07-20T14:43:20;2.45;;;2.30;;
18336;SDS011;9294;51.106;7.028;2023-07-20T14:45:47;1.88;;;1.80;;
18336;SDS011;9294;51.106;7.028;2023-07-20T14:48:14;1.60;;;1.50;;
18336;SDS011;9294;51.106;7.028;2023-07-20T14:50:41;2.03;;;1.92;;
18336;SDS011;9294;51.106;7.028;2023-07-20T14:53:11;2.00;;;1.90;;
18336;SDS011;9294;51.106;7.028;2023-07-20T14:55:39;1.83;;;1.73;;
18336;SDS011;9294;51.106;7.028;2023-07-20T14:58:06;2.90;;;2.00;;
18336;SDS011;9294;51.106;7.028;2023-07-20T15:00:33;4.70;;;2.10;;
18336;SDS011;9294;51.106;7.028;2023-07-20T15:03:00;2.90;;;1.58;;
18336;SDS011;9294;51.106;7.028;2023-07-20T15:05:27;2.22;;;2.13;;
18336;SDS011;9294;51.106;7.028;2023-07-20T15:07:55;3.15;;;1.85;;